Time;durP1;ratioP1;P1;durP2;ratioP2;P2;SDS_P1;SDS_P2;PMS_P1;PMS_P2;Temp;Humidity;BMP_temperature;BMP_pressure;BME280_temperature;BME280_humidity;BME280_pressure;Samples;Min_cycle;Max_cycle;Signal;HPM_P1;HPM_P2
2023/05/08 00:01:15;;;;;;;6.03;5.40;;;14.00;99.90;;;;;;5047558;28;20219;-81
2023/05/08 00:03:41;;;;;;;6.13;5.53;;;14.00;99.90;;;;;;5037543;28;20172;-81
2023/05/08 00:06:07;;;;;;;5.20;4.80;;;14.00;99.90;;;;;;5034197;28;20224;-80
2023/05/08 00:08:32;;;;;;;5.80;5.17;;;13.90;99.90;;;;;;5034511;28;20306;-83
2023/05/08 00:10:58;;;;;;;5.63;5.13;;;13.80;99.90;;;;;;5035026;28;20203;-80
2023/05/08 00:13:24;;;;;;;5.43;4.93;;;13.90;99.90;;;;;;5033257;28;20250;-80
2023/05/08 00:15:51;;;;;;;5.87;5.17;;;13.90;99.90;;;;;;5032281;28;20219;-81
2023/05/08 00:18:17;;;;;;;6.23;5.53;;;13.90;99.90;;;;;;5033028;28;20203;-82
2023/05/08 00:20:42;;;;;;;6.57;5.37;;;13.90;99.90;;;;;;5033215;28;20242;-81
2023/05/08 00:23:08;;;;;;;6.00;5.40;;;13.90;99.90;;;;;;5034103;28;20808;-81
2023/05/08 00:25:34;;;;;;;5.83;5.33;;;13.80;99.90;;;;;;5044423;28;20208;-80
2023/05/08 00:28:00;;;;;;;6.23;5.63;;;13.90;99.90;;;;;;5033682;28;20576;-81
2023/05/08 00:30:27;;;;;;;9.07;5.70;;;13.90;99.90;;;;;;5033255;28;20200;-81
2023/05/08 00:32:53;;;;;;;7.10;5.70;;;13.80;99.90;;;;;;5032021;28;20192;-81
2023/05/08 00:35:19;;;;;;;5.83;5.23;;;13.80;99.90;;;;;;5033091;28;20238;-82
2023/05/08 00:37:45;;;;;;;5.73;5.33;;;13.70;99.90;;;;;;5032582;28;20354;-82
2023/05/08 00:40:11;;;;;;;6.63;6.03;;;13.80;99.90;;;;;;5033060;28;20177;-81
2023/05/08 00:42:38;;;;;;;6.50;5.87;;;13.80;99.90;;;;;;5032475;28;20180;-79
2023/05/08 00:45:04;;;;;;;7.10;6.43;;;13.80;99.90;;;;;;5032738;28;20180;-80
2023/05/08 00:47:31;;;;;;;6.60;6.10;;;13.70;99.90;;;;;;5032524;28;20175;-83
2023/05/08 00:49:58;;;;;;;7.00;6.00;;;13.70;99.90;;;;;;5034116;28;20174;-80
2023/05/08 00:52:26;;;;;;;6.53;5.70;;;13.60;99.90;;;;;;5038069;28;20195;-81
2023/05/08 00:54:53;;;;;;;6.50;5.90;;;13.60;99.90;;;;;;5036518;28;20802;-81
2023/05/08 00:57:21;;;;;;;9.17;6.37;;;13.60;99.90;;;;;;5033694;28;20173;-81
2023/05/08 00:59:49;;;;;;;12.03;6.27;;;13.50;99.90;;;;;;5033498;28;20168;-81
2023/05/08 01:02:15;;;;;;;5.93;5.43;;;13.50;99.90;;;;;;5033370;28;20510;-81
2023/05/08 01:04:43;;;;;;;6.40;5.90;;;13.50;99.90;;;;;;5033296;28;20176;-83
2023/05/08 01:07:10;;;;;;;7.87;5.70;;;13.50;99.90;;;;;;5032666;28;20196;-80
2023/05/08 01:09:39;;;;;;;6.70;5.70;;;13.40;99.90;;;;;;5033258;28;20187;-81
2023/05/08 01:12:39;;;;;;;7.20;6.50;;;13.40;99.90;;;;;;5037498;28;20196;-81
2023/05/08 01:15:13;;;;;;;6.10;5.60;;;13.40;99.90;;;;;;5035621;28;20579;-82
2023/05/08 01:17:53;;;;;;;6.23;5.67;;;13.40;99.90;;;;;;5034789;28;20177;-83
2023/05/08 01:20:40;;;;;;;6.33;5.73;;;13.30;99.90;;;;;;5037789;28;20172;-82
2023/05/08 01:23:35;;;;;;;6.70;6.10;;;13.20;99.90;;;;;;5037563;28;20196;-80
2023/05/08 01:26:01;;;;;;;6.60;6.10;;;13.20;99.90;;;;;;5025874;28;20208;-80
2023/05/08 01:28:52;;;;;;;6.23;5.63;;;13.20;99.90;;;;;;5035596;28;20587;-81
2023/05/08 01:31:50;;;;;;;6.67;6.07;;;13.10;99.90;;;;;;5036781;28;20200;-83
2023/05/08 01:34:30;;;;;;;5.73;5.30;;;13.10;99.90;;;;;;5036492;28;20157;-80
2023/05/08 01:37:01;;;;;;;6.70;6.10;;;13.00;99.90;;;;;;5035335;28;20176;-81
2023/05/08 01:39:30;;;;;;;6.60;6.00;;;12.90;99.90;;;;;;5034608;28;20165;-81
2023/05/08 01:42:21;;;;;;;7.33;6.63;;;12.90;99.90;;;;;;5047073;28;20208;-82
2023/05/08 01:44:56;;;;;;;6.37;5.77;;;12.80;99.90;;;;;;5040074;28;20210;-81
2023/05/08 01:47:25;;;;;;;7.53;6.83;;;12.80;99.90;;;;;;5039152;28;20187;-82
2023/05/08 01:50:17;;;;;;;7.10;6.40;;;12.80;99.90;;;;;;5036556;28;20172;-81
2023/05/08 01:52:49;;;;;;;7.40;6.60;;;12.70;99.90;;;;;;5030243;28;20228;-81
2023/05/08 01:55:26;;;;;;;6.63;6.03;;;12.70;99.90;;;;;;5035984;28;20168;-82
2023/05/08 01:57:55;;;;;;;6.63;6.03;;;12.60;99.90;;;;;;5033907;28;20184;-81
2023/05/08 02:00:24;;;;;;;7.17;6.47;;;12.60;99.90;;;;;;5035804;28;20242;-82
2023/05/08 02:02:55;;;;;;;6.97;6.27;;;12.50;99.90;;;;;;5035927;28;20173;-81
2023/05/08 02:05:22;;;;;;;7.40;6.70;;;12.40;99.90;;;;;;5035536;28;20251;-82
2023/05/08 02:07:49;;;;;;;7.30;6.67;;;12.40;99.90;;;;;;5035139;28;20165;-82
2023/05/08 02:10:16;;;;;;;6.73;6.13;;;12.30;99.90;;;;;;5035238;28;20207;-81
2023/05/08 02:12:43;;;;;;;8.27;6.90;;;12.40;99.90;;;;;;5036146;28;20187;-81
2023/05/08 02:15:12;;;;;;;7.97;7.17;;;12.40;99.90;;;;;;5037503;28;20509;-82
2023/05/08 02:17:39;;;;;;;7.47;6.70;;;12.40;99.90;;;;;;5034875;28;20271;-81
2023/05/08 02:20:07;;;;;;;7.73;6.87;;;12.30;99.90;;;;;;5035213;28;20531;-82
2023/05/08 02:22:34;;;;;;;9.80;6.87;;;12.30;99.90;;;;;;5035067;28;20226;-78
2023/05/08 02:25:00;;;;;;;7.43;6.77;;;12.30;99.90;;;;;;5035121;28;20173;-80
2023/05/08 02:27:30;;;;;;;8.97;7.03;;;12.20;99.90;;;;;;5034712;28;20212;-83
2023/05/08 02:29:57;;;;;;;7.57;6.87;;;12.30;99.90;;;;;;5035425;28;20527;-81
2023/05/08 02:32:25;;;;;;;9.63;7.20;;;12.30;99.90;;;;;;5035050;28;20209;-80
2023/05/08 02:34:53;;;;;;;8.20;7.40;;;12.20;99.90;;;;;;5035700;28;20168;-80
2023/05/08 02:37:20;;;;;;;9.20;8.30;;;12.00;99.90;;;;;;5035112;28;20208;-82
2023/05/08 02:39:48;;;;;;;8.27;7.47;;;12.00;99.90;;;;;;5035066;28;20226;-81
2023/05/08 02:42:14;;;;;;;10.87;7.23;;;12.00;99.90;;;;;;5035978;28;20171;-80
2023/05/08 02:44:40;;;;;;;8.20;7.40;;;12.00;99.90;;;;;;5038347;28;20202;-80
2023/05/08 02:47:22;;;;;;;8.20;7.40;;;11.90;99.90;;;;;;5043096;28;20169;-78
2023/05/08 02:49:52;;;;;;;7.70;7.00;;;11.90;99.90;;;;;;5039136;28;20180;-82
2023/05/08 02:52:31;;;;;;;8.53;7.63;;;12.00;99.90;;;;;;5034751;28;20218;-81
2023/05/08 02:55:00;;;;;;;9.40;7.60;;;11.90;99.90;;;;;;5034849;28;20251;-79
2023/05/08 02:57:36;;;;;;;7.37;6.67;;;11.90;99.90;;;;;;5035655;28;20222;-80
2023/05/08 03:00:21;;;;;;;8.23;7.37;;;11.80;99.90;;;;;;5040982;28;20182;-80
2023/05/08 03:02:51;;;;;;;8.27;7.43;;;11.80;99.90;;;;;;5034935;28;20632;-80
2023/05/08 03:05:29;;;;;;;8.90;8.00;;;11.80;99.90;;;;;;5035258;28;20254;-78
2023/05/08 03:08:11;;;;;;;8.80;7.90;;;11.70;99.90;;;;;;5040654;28;20166;-81
2023/05/08 03:10:42;;;;;;;7.70;7.00;;;11.50;99.90;;;;;;5037551;28;20184;-81
2023/05/08 03:13:09;;;;;;;7.83;7.03;;;11.50;99.90;;;;;;5035247;28;20234;-81
2023/05/08 03:15:43;;;;;;;7.70;6.90;;;11.50;99.90;;;;;;5035161;28;20532;-81
2023/05/08 03:18:20;;;;;;;7.90;7.10;;;11.40;99.90;;;;;;5034467;28;20168;-81
2023/05/08 03:20:51;;;;;;;11.43;7.60;;;11.40;99.90;;;;;;5035425;28;20184;-81
2023/05/08 03:23:20;;;;;;;8.17;7.23;;;11.40;99.90;;;;;;5040416;28;20164;-82
2023/05/08 03:25:50;;;;;;;7.83;7.13;;;11.30;99.90;;;;;;5035233;28;20228;-82
2023/05/08 03:28:18;;;;;;;9.33;8.37;;;11.20;99.90;;;;;;5034580;28;20170;-84
2023/05/08 03:30:44;;;;;;;9.30;7.67;;;11.30;99.90;;;;;;5035930;28;20203;-82
2023/05/08 03:33:11;;;;;;;11.23;7.17;;;11.20;99.90;;;;;;5035393;28;20176;-82
2023/05/08 03:35:38;;;;;;;10.47;7.70;;;11.10;99.90;;;;;;5034221;28;20178;-82
2023/05/08 03:38:05;;;;;;;10.07;6.80;;;11.10;99.90;;;;;;5034050;28;20630;-81
2023/05/08 03:40:35;;;;;;;7.47;6.73;;;11.10;99.90;;;;;;5032813;28;20593;-82
2023/05/08 03:43:02;;;;;;;11.43;7.33;;;11.20;99.90;;;;;;5034078;28;20166;-84
2023/05/08 03:45:30;;;;;;;8.50;6.80;;;11.20;99.90;;;;;;5032009;28;20194;-83
2023/05/08 03:47:58;;;;;;;7.80;7.00;;;11.10;99.90;;;;;;5032473;28;20258;-83
2023/05/08 03:50:24;;;;;;;8.53;7.53;;;11.00;99.90;;;;;;5033420;28;20175;-81
2023/05/08 03:52:50;;;;;;;9.17;7.43;;;11.10;99.90;;;;;;5032858;28;20179;-81
2023/05/08 03:55:16;;;;;;;10.40;7.13;;;11.10;99.90;;;;;;5034095;28;20176;-82
2023/05/08 03:57:56;;;;;;;9.00;7.77;;;11.10;99.90;;;;;;5033973;28;20206;-80
2023/05/08 04:00:36;;;;;;;8.07;7.27;;;11.00;99.90;;;;;;5033723;28;20741;-81
2023/05/08 04:03:23;;;;;;;8.67;6.77;;;10.90;99.90;;;;;;5034080;28;20239;-81
2023/05/08 04:05:58;;;;;;;8.33;7.37;;;10.90;99.90;;;;;;5033999;28;20238;-79
2023/05/08 04:08:32;;;;;;;7.93;7.13;;;10.80;99.90;;;;;;5014510;28;20529;-80
2023/05/08 04:11:28;;;;;;;10.43;7.77;;;10.80;99.90;;;;;;5018570;28;20252;-82
2023/05/08 04:14:02;;;;;;;9.60;7.60;;;10.90;99.90;;;;;;5018332;28;20282;-83
2023/05/08 04:16:31;;;;;;;9.40;8.40;;;11.00;99.90;;;;;;5013378;28;20160;-80
2023/05/08 04:19:09;;;;;;;9.70;7.63;;;11.00;99.90;;;;;;5013639;28;20189;-81
2023/05/08 04:21:38;;;;;;;8.40;7.53;;;11.00;99.90;;;;;;5052350;28;20170;-79
2023/05/08 04:24:08;;;;;;;9.43;7.97;;;10.90;99.90;;;;;;5015039;28;20539;-80
2023/05/08 04:26:34;;;;;;;11.60;8.43;;;10.80;99.90;;;;;;5013204;28;20183;-81
2023/05/08 04:29:01;;;;;;;8.80;7.90;;;11.00;99.90;;;;;;5027013;28;20197;-81
2023/05/08 04:31:28;;;;;;;9.57;7.70;;;10.90;99.90;;;;;;5014186;28;20219;-80
2023/05/08 04:33:55;;;;;;;9.20;7.93;;;11.00;99.90;;;;;;5054053;28;20205;-81
2023/05/08 04:36:20;;;;;;;9.57;8.07;;;10.90;99.90;;;;;;5045216;28;20187;-80
2023/05/08 04:38:46;;;;;;;10.63;8.90;;;11.00;99.90;;;;;;5012966;28;20209;-81
2023/05/08 04:41:14;;;;;;;11.00;8.33;;;10.90;99.90;;;;;;5012993;28;20255;-80
2023/05/08 04:43:41;;;;;;;11.00;8.83;;;10.90;99.90;;;;;;5012966;28;20575;-82
2023/05/08 04:46:07;;;;;;;10.43;8.53;;;11.00;99.90;;;;;;5012825;28;20545;-82
2023/05/08 04:48:33;;;;;;;10.67;8.57;;;10.90;99.90;;;;;;5012995;28;20186;-80
2023/05/08 04:50:59;;;;;;;10.80;8.73;;;10.80;99.90;;;;;;5012745;28;20208;-81
2023/05/08 04:53:25;;;;;;;10.10;9.00;;;10.70;99.90;;;;;;5015404;28;20173;-83
2023/05/08 04:55:52;;;;;;;10.10;8.60;;;10.70;99.90;;;;;;5014479;28;20184;-80
2023/05/08 04:58:17;;;;;;;10.63;8.73;;;10.60;99.90;;;;;;5012731;28;20177;-82
2023/05/08 05:00:43;;;;;;;14.03;10.30;;;10.60;99.90;;;;;;5012227;28;20260;-80
2023/05/08 05:03:11;;;;;;;12.60;9.70;;;10.60;99.90;;;;;;5016792;28;20177;-84
2023/05/08 05:05:36;;;;;;;11.00;8.80;;;10.70;99.90;;;;;;5017219;28;20218;-81
2023/05/08 05:08:03;;;;;;;12.80;9.07;;;10.70;99.90;;;;;;5016418;28;20714;-82
2023/05/08 05:10:29;;;;;;;11.07;8.87;;;10.60;99.90;;;;;;5016827;28;20213;-82
2023/05/08 05:12:56;;;;;;;11.77;9.20;;;10.60;99.90;;;;;;5016632;28;20265;-81
2023/05/08 05:15:22;;;;;;;11.23;9.50;;;10.70;99.90;;;;;;5016668;28;20175;-83
2023/05/08 05:17:48;;;;;;;9.87;8.83;;;10.60;99.90;;;;;;5048013;28;20186;-79
2023/05/08 05:20:14;;;;;;;10.67;8.93;;;10.50;99.90;;;;;;5016314;28;20180;-80
2023/05/08 05:22:40;;;;;;;12.23;9.13;;;10.40;99.90;;;;;;5016325;28;20652;-81
2023/05/08 05:25:06;;;;;;;12.20;8.90;;;10.40;99.90;;;;;;5016108;28;20169;-80
2023/05/08 05:27:35;;;;;;;10.93;9.30;;;10.40;99.90;;;;;;5016364;28;20177;-81
2023/05/08 05:30:01;;;;;;;12.40;9.23;;;10.50;99.90;;;;;;5015722;28;20280;-82
2023/05/08 05:32:27;;;;;;;11.40;9.40;;;10.50;99.90;;;;;;5017639;28;20203;-81
2023/05/08 05:34:53;;;;;;;10.87;9.47;;;10.40;99.90;;;;;;5017034;28;20278;-81
2023/05/08 05:37:19;;;;;;;11.30;9.30;;;10.50;99.90;;;;;;5050091;28;20196;-81
2023/05/08 05:39:44;;;;;;;11.00;9.07;;;10.60;99.90;;;;;;5017218;28;20170;-83
2023/05/08 05:42:10;;;;;;;11.10;8.43;;;10.40;99.90;;;;;;5015525;28;20183;-82
2023/05/08 05:44:36;;;;;;;11.40;8.97;;;10.40;99.90;;;;;;5015660;28;20214;-81
2023/05/08 05:47:08;;;;;;;11.70;9.27;;;10.50;99.90;;;;;;5015443;28;20745;-81
2023/05/08 05:49:34;;;;;;;10.60;8.67;;;10.60;99.90;;;;;;5021655;28;20196;-84
2023/05/08 05:52:00;;;;;;;11.87;9.60;;;10.50;99.90;;;;;;5022571;28;20211;-81
2023/05/08 05:54:26;;;;;;;11.13;9.03;;;10.50;99.90;;;;;;5015962;28;20174;-81
2023/05/08 05:56:52;;;;;;;10.47;8.97;;;9.20;99.90;;;;;;5018489;28;20211;-80
2023/05/08 05:59:17;;;;;;;12.33;9.27;;;10.60;99.90;;;;;;5049469;28;20237;-82
2023/05/08 06:01:43;;;;;;;12.27;9.60;;;10.60;99.90;;;;;;5015968;28;20185;-81
2023/05/08 06:04:09;;;;;;;12.47;9.53;;;10.60;99.90;;;;;;5016388;28;20175;-82
2023/05/08 06:06:35;;;;;;;12.67;9.77;;;10.60;99.90;;;;;;5032601;28;20230;-80
2023/05/08 06:09:01;;;;;;;10.03;8.60;;;10.70;99.90;;;;;;5021468;28;20237;-83
2023/05/08 06:11:26;;;;;;;14.13;9.67;;;10.70;99.90;;;;;;5018646;28;20226;-80
2023/05/08 06:13:52;;;;;;;10.67;9.40;;;10.60;99.90;;;;;;5014409;28;20178;-81
2023/05/08 06:16:21;;;;;;;13.67;9.33;;;10.60;99.90;;;;;;5047031;28;20184;-82
2023/05/08 06:18:47;;;;;;;12.13;9.23;;;10.70;99.90;;;;;;5016346;28;20252;-82
2023/05/08 06:21:13;;;;;;;13.20;9.70;;;10.70;99.90;;;;;;5015098;28;20201;-81
2023/05/08 06:23:40;;;;;;;14.03;10.17;;;10.70;99.90;;;;;;5015670;28;20178;-81
2023/05/08 06:26:06;;;;;;;13.00;9.80;;;10.80;99.90;;;;;;5015020;28;20233;-81
2023/05/08 06:28:31;;;;;;;11.60;9.43;;;10.70;99.90;;;;;;5014894;28;20180;-82
2023/05/08 06:30:57;;;;;;;11.23;9.27;;;10.80;99.90;;;;;;5014857;28;20207;-81
2023/05/08 06:33:23;;;;;;;10.80;8.97;;;10.80;99.90;;;;;;5015401;28;20619;-83
2023/05/08 06:35:49;;;;;;;11.43;10.03;;;11.00;99.90;;;;;;5015176;28;20697;-84
2023/05/08 06:38:15;;;;;;;14.47;9.87;;;11.00;99.90;;;;;;5015185;28;20176;-82
2023/05/08 06:40:44;;;;;;;13.23;9.77;;;11.10;99.90;;;;;;5015630;28;20632;-84
2023/05/08 06:43:11;;;;;;;13.33;9.87;;;11.10;99.90;;;;;;5015549;28;20511;-83
2023/05/08 06:45:37;;;;;;;12.00;9.30;;;11.10;99.90;;;;;;5021305;28;20265;-82
2023/05/08 06:48:03;;;;;;;11.50;9.60;;;11.10;99.90;;;;;;5015993;28;20189;-80
2023/05/08 06:50:30;;;;;;;13.07;10.57;;;11.10;99.90;;;;;;5015887;28;20173;-79
2023/05/08 06:52:56;;;;;;;13.57;10.20;;;11.20;99.90;;;;;;5015080;28;20177;-83
2023/05/08 06:55:21;;;;;;;11.43;9.93;;;11.20;99.90;;;;;;5015548;28;20657;-83
2023/05/08 06:57:47;;;;;;;10.30;9.03;;;11.20;99.90;;;;;;5015166;28;20212;-82
2023/05/08 07:00:13;;;;;;;14.07;10.47;;;11.30;99.90;;;;;;5015062;28;20208;-82
2023/05/08 07:02:39;;;;;;;10.83;9.23;;;11.30;99.90;;;;;;5017076;28;20174;-80
2023/05/08 07:05:05;;;;;;;12.77;9.40;;;11.30;99.90;;;;;;5016208;28;20322;-83
2023/05/08 07:07:32;;;;;;;13.73;10.10;;;11.40;99.90;;;;;;5014700;28;20167;-83
2023/05/08 07:09:58;;;;;;;10.60;9.13;;;11.40;99.90;;;;;;5019542;28;20231;-81
2023/05/08 07:12:24;;;;;;;11.53;8.80;;;11.50;99.90;;;;;;5052488;28;20247;-82
2023/05/08 07:14:50;;;;;;;14.33;9.90;;;11.60;99.90;;;;;;5014753;28;20169;-82
2023/05/08 07:17:18;;;;;;;12.33;9.80;;;11.60;99.90;;;;;;5029332;28;20187;-83
2023/05/08 07:19:48;;;;;;;12.77;8.97;;;11.70;99.90;;;;;;5013760;28;20183;-83
2023/05/08 07:22:14;;;;;;;12.93;10.10;;;11.70;99.90;;;;;;5013829;28;20186;-82
2023/05/08 07:24:40;;;;;;;13.33;9.90;;;11.70;99.90;;;;;;5013831;28;20584;-81
2023/05/08 07:27:05;;;;;;;13.97;10.07;;;11.60;99.90;;;;;;5013518;28;20178;-83
2023/05/08 07:29:31;;;;;;;13.07;9.90;;;11.60;99.90;;;;;;5013974;28;20178;-83
2023/05/08 07:31:57;;;;;;;12.87;10.40;;;11.80;99.90;;;;;;5018824;28;20208;-84
2023/05/08 07:34:23;;;;;;;14.60;10.20;;;11.80;99.90;;;;;;5015506;28;20246;-81
2023/05/08 07:36:48;;;;;;;14.13;10.80;;;11.80;99.90;;;;;;5013636;28;20186;-83
2023/05/08 07:39:14;;;;;;;13.67;10.00;;;11.90;99.90;;;;;;5012273;28;20183;-81
2023/05/08 07:41:40;;;;;;;13.73;9.90;;;12.00;99.90;;;;;;5016006;28;20176;-84
2023/05/08 07:44:06;;;;;;;13.03;10.87;;;11.90;99.90;;;;;;5018272;28;20181;-81
2023/05/08 07:46:32;;;;;;;13.23;10.43;;;12.00;99.90;;;;;;5013805;28;20200;-82
2023/05/08 07:48:58;;;;;;;13.93;10.60;;;12.00;99.90;;;;;;5013465;28;20181;-81
2023/05/08 07:51:23;;;;;;;13.23;10.43;;;11.90;99.90;;;;;;5012980;28;20215;-82
2023/05/08 07:53:53;;;;;;;11.10;9.10;;;12.00;99.90;;;;;;5013221;28;20180;-82
2023/05/08 07:56:19;;;;;;;15.40;10.67;;;11.90;99.90;;;;;;5013082;28;20903;-83
2023/05/08 07:58:46;;;;;;;12.43;9.83;;;11.90;99.90;;;;;;5013306;28;20321;-83
2023/05/08 08:01:12;;;;;;;12.80;10.07;;;11.90;99.90;;;;;;5045188;28;20253;-82
2023/05/08 08:03:38;;;;;;;14.00;10.57;;;12.00;99.90;;;;;;5013021;28;20629;-82
2023/05/08 08:06:04;;;;;;;15.23;11.03;;;12.00;99.90;;;;;;5012618;28;20227;-82
2023/05/08 08:08:29;;;;;;;14.13;11.40;;;12.10;99.90;;;;;;5012875;28;20221;-79
2023/05/08 08:10:55;;;;;;;13.70;11.03;;;12.10;99.90;;;;;;5012845;28;20239;-80
2023/05/08 08:13:21;;;;;;;13.07;10.00;;;12.00;99.90;;;;;;5012896;28;20177;-81
2023/05/08 08:15:47;;;;;;;15.03;9.93;;;12.20;99.90;;;;;;5012742;28;20192;-82
2023/05/08 08:18:12;;;;;;;13.90;10.60;;;12.40;99.90;;;;;;5012904;28;20184;-81
2023/05/08 08:20:39;;;;;;;14.10;11.17;;;12.50;99.90;;;;;;5013301;28;20174;-82
2023/05/08 08:23:05;;;;;;;12.47;10.17;;;12.50;99.90;;;;;;5013084;28;20177;-82
2023/05/08 08:25:31;;;;;;;13.00;9.77;;;12.40;99.90;;;;;;5016530;28;20656;-81
2023/05/08 08:27:57;;;;;;;15.60;11.10;;;12.30;99.90;;;;;;5035254;28;20697;-82
2023/05/08 08:30:23;;;;;;;12.90;9.80;;;12.40;99.90;;;;;;5036237;28;20183;-82
2023/05/08 08:32:49;;;;;;;13.53;10.20;;;12.40;99.90;;;;;;5036503;28;20183;-81
2023/05/08 08:35:15;;;;;;;15.97;10.70;;;12.50;99.90;;;;;;5032772;28;20187;-83
2023/05/08 08:37:41;;;;;;;13.27;10.70;;;12.40;99.90;;;;;;5031998;28;20180;-81
2023/05/08 08:40:07;;;;;;;13.87;10.27;;;12.30;99.90;;;;;;5032781;28;20172;-81
2023/05/08 08:42:33;;;;;;;14.00;10.20;;;12.40;99.90;;;;;;5032343;28;20183;-82
2023/05/08 08:45:00;;;;;;;11.90;9.60;;;12.40;99.90;;;;;;5032657;28;20256;-81
2023/05/08 08:47:33;;;;;;;12.73;10.00;;;12.40;99.90;;;;;;5034164;28;20176;-80
2023/05/08 08:50:02;;;;;;;15.13;10.47;;;12.50;99.90;;;;;;5034365;28;20173;-81
2023/05/08 08:52:54;;;;;;;15.30;10.60;;;12.50;99.90;;;;;;5032490;28;20255;-82
2023/05/08 08:55:22;;;;;;;13.03;10.67;;;12.50;99.90;;;;;;5032606;28;20584;-82
2023/05/08 08:58:25;;;;;;;16.17;10.90;;;12.60;99.90;;;;;;5032396;28;20234;-83
2023/05/08 09:00:53;;;;;;;13.23;9.97;;;12.70;99.90;;;;;;5032901;28;20166;-78
2023/05/08 09:03:19;;;;;;;13.60;10.83;;;12.80;99.90;;;;;;5031060;28;20180;-79
2023/05/08 09:05:48;;;;;;;12.73;10.67;;;12.80;99.90;;;;;;5035716;28;20236;-80
2023/05/08 09:08:18;;;;;;;14.57;11.20;;;12.80;99.90;;;;;;5035262;28;20181;-81
2023/05/08 09:10:44;;;;;;;15.70;10.70;;;12.80;99.90;;;;;;5032401;28;20201;-82
2023/05/08 09:13:10;;;;;;;13.37;10.03;;;12.70;99.90;;;;;;5032801;28;20173;-81
2023/05/08 09:15:36;;;;;;;14.23;11.10;;;12.70;99.90;;;;;;5032938;28;20167;-82
2023/05/08 09:18:02;;;;;;;12.40;10.43;;;12.80;99.90;;;;;;5039417;28;20176;-81
2023/05/08 09:20:28;;;;;;;17.13;10.37;;;12.90;99.90;;;;;;5032590;28;20181;-80
2023/05/08 09:22:56;;;;;;;13.43;9.80;;;12.90;99.90;;;;;;5031978;28;20177;-81
2023/05/08 09:25:22;;;;;;;13.27;9.67;;;13.00;99.90;;;;;;5032116;28;20169;-81
2023/05/08 09:27:48;;;;;;;15.27;10.70;;;13.00;99.90;;;;;;5032325;28;20250;-82
2023/05/08 09:30:14;;;;;;;13.37;10.47;;;13.00;99.90;;;;;;5034238;28;20278;-82
2023/05/08 09:32:42;;;;;;;15.53;10.73;;;13.10;99.90;;;;;;5035764;28;20205;-82
2023/05/08 09:35:09;;;;;;;12.47;9.60;;;13.20;99.90;;;;;;5032361;28;20175;-82
2023/05/08 09:37:38;;;;;;;12.50;10.80;;;13.20;99.90;;;;;;5032017;28;20593;-83
2023/05/08 09:40:18;;;;;;;14.00;10.97;;;13.40;99.90;;;;;;5031915;28;20172;-83
2023/05/08 09:42:45;;;;;;;13.70;11.23;;;13.40;99.90;;;;;;5031795;28;20157;-80
2023/05/08 09:45:11;;;;;;;12.60;10.30;;;13.20;99.90;;;;;;5031858;28;20260;-79
2023/05/08 09:47:38;;;;;;;14.20;10.90;;;13.30;99.90;;;;;;5032547;28;20227;-77
2023/05/08 09:50:11;;;;;;;13.70;10.70;;;13.20;99.90;;;;;;5034675;28;20592;-81
2023/05/08 09:52:44;;;;;;;12.60;10.63;;;13.10;99.90;;;;;;5039064;28;20201;-80
2023/05/08 09:55:10;;;;;;;13.63;10.13;;;13.10;99.90;;;;;;5042333;28;20160;-80
2023/05/08 09:57:38;;;;;;;13.20;10.33;;;13.10;99.90;;;;;;5037546;28;20226;-81
2023/05/08 10:00:11;;;;;;;12.80;10.37;;;12.90;99.90;;;;;;5036202;28;20177;-82
2023/05/08 10:02:39;;;;;;;13.13;9.83;;;12.80;99.90;;;;;;5034290;28;20510;-80
2023/05/08 10:05:21;;;;;;;13.63;10.67;;;12.90;99.90;;;;;;5034997;28;20581;-79
2023/05/08 10:07:47;;;;;;;12.80;10.43;;;12.90;99.90;;;;;;5034871;28;20184;-81
2023/05/08 10:10:13;;;;;;;13.07;9.80;;;12.90;99.90;;;;;;5035320;28;20271;-83
2023/05/08 10:12:40;;;;;;;12.40;10.53;;;13.00;99.90;;;;;;5035542;28;20235;-81
2023/05/08 10:15:06;;;;;;;16.43;10.90;;;13.00;99.90;;;;;;5034890;28;20263;-81
2023/05/08 10:17:43;;;;;;;15.97;11.37;;;12.80;99.90;;;;;;5033284;28;20192;-83
2023/05/08 10:20:12;;;;;;;13.43;10.60;;;12.80;99.90;;;;;;5034970;28;20633;-81
2023/05/08 10:22:42;;;;;;;13.03;11.33;;;12.60;99.90;;;;;;5034835;28;20200;-79
2023/05/08 10:25:19;;;;;;;15.27;11.20;;;12.70;99.90;;;;;;5035692;28;20176;-79
2023/05/08 10:27:57;;;;;;;14.50;10.83;;;12.60;99.90;;;;;;5034959;28;20164;-79
2023/05/08 10:30:27;;;;;;;14.77;11.00;;;12.60;99.90;;;;;;5033806;28;20172;-79
2023/05/08 10:32:55;;;;;;;20.53;11.87;;;12.70;99.90;;;;;;5034662;28;20233;-80
2023/05/08 10:35:22;;;;;;;17.93;12.17;;;12.70;99.90;;;;;;5034296;28;20259;-80
2023/05/08 10:37:48;;;;;;;14.60;11.47;;;12.70;99.90;;;;;;5034643;28;20176;-80
2023/05/08 10:40:14;;;;;;;16.83;12.17;;;12.80;99.90;;;;;;5035716;28;20164;-82
2023/05/08 10:42:41;;;;;;;18.30;11.83;;;12.80;99.90;;;;;;5036405;28;20246;-83
2023/05/08 10:45:08;;;;;;;14.27;12.13;;;12.80;99.90;;;;;;5034919;28;20169;-81
2023/05/08 10:48:04;;;;;;;16.17;12.30;;;12.60;99.90;;;;;;5034402;28;20230;-80
2023/05/08 10:50:41;;;;;;;15.40;11.67;;;12.60;99.90;;;;;;5036544;28;20192;-82
2023/05/08 10:53:21;;;;;;;17.73;12.10;;;12.60;99.90;;;;;;5039515;28;20164;-78
2023/05/08 10:55:50;;;;;;;15.93;12.27;;;12.70;99.90;;;;;;5033917;28;20168;-80
2023/05/08 10:58:29;;;;;;;17.60;12.90;;;12.60;99.90;;;;;;5034329;28;20180;-78
2023/05/08 11:00:58;;;;;;;22.20;13.13;;;12.40;99.90;;;;;;5033555;28;20216;-78
2023/05/08 11:03:31;;;;;;;16.60;12.67;;;12.40;99.90;;;;;;5034198;28;20522;-77
2023/05/08 11:05:58;;;;;;;19.30;13.40;;;12.40;99.90;;;;;;5033480;28;20642;-79
2023/05/08 11:08:27;;;;;;;17.07;12.23;;;12.40;99.90;;;;;;5033849;28;20230;-78
2023/05/08 11:11:03;;;;;;;17.93;12.90;;;12.40;99.90;;;;;;5034362;28;20208;-77
2023/05/08 11:14:14;;;;;;;16.33;12.90;;;12.40;99.90;;;;;;5034770;28;20160;-78
2023/05/08 11:16:53;;;;;;;17.17;13.40;;;12.60;99.90;;;;;;5013137;28;20309;-81
2023/05/08 11:19:23;;;;;;;16.70;12.27;;;12.80;99.90;;;;;;5014451;28;20200;-81
2023/05/08 11:22:10;;;;;;;21.53;12.70;;;12.90;99.90;;;;;;5013889;28;20208;-81
2023/05/08 11:24:38;;;;;;;15.90;12.63;;;13.10;99.90;;;;;;5012232;28;20173;-80
2023/05/08 11:27:03;;;;;;;16.90;12.87;;;13.20;99.90;;;;;;5017792;28;20204;-83
2023/05/08 11:29:29;;;;;;;18.33;13.10;;;13.40;99.90;;;;;;5030268;28;20233;-80
2023/05/08 11:31:55;;;;;;;18.20;13.17;;;13.60;99.90;;;;;;5014322;28;20726;-81
2023/05/08 11:34:40;;;;;;;18.40;12.97;;;13.60;99.90;;;;;;5011975;28;20175;-81
2023/05/08 11:37:10;;;;;;;18.57;13.43;;;13.60;99.90;;;;;;5011130;28;20260;-83
2023/05/08 11:39:38;;;;;;;17.13;12.90;;;13.80;99.90;;;;;;5011272;28;20192;-82
2023/05/08 11:42:25;;;;;;;16.93;11.93;;;14.20;99.90;;;;;;5011362;28;20176;-81
2023/05/08 11:45:12;;;;;;;18.87;11.87;;;14.50;99.90;;;;;;5013997;28;20687;-83
2023/05/08 11:47:43;;;;;;;16.73;12.67;;;14.60;99.90;;;;;;5031900;28;20176;-81
2023/05/08 11:50:10;;;;;;;16.60;12.30;;;14.80;99.90;;;;;;5035814;28;20642;-81
2023/05/08 11:52:38;;;;;;;14.67;11.83;;;14.70;99.90;;;;;;5033026;28;20216;-83
2023/05/08 11:55:06;;;;;;;14.87;10.93;;;15.00;99.90;;;;;;5033148;28;20178;-82
2023/05/08 11:57:32;;;;;;;13.60;10.60;;;15.10;99.90;;;;;;5032713;28;20176;-82
2023/05/08 12:00:04;;;;;;;14.83;11.47;;;15.40;99.90;;;;;;5033173;28;20663;-80
2023/05/08 12:02:38;;;;;;;14.63;11.57;;;15.50;99.90;;;;;;5033047;28;20196;-79
2023/05/08 12:05:05;;;;;;;16.73;11.33;;;15.40;99.90;;;;;;5032581;28;20165;-79
2023/05/08 12:07:31;;;;;;;17.73;12.13;;;15.40;99.90;;;;;;5032493;28;20201;-78
2023/05/08 12:09:56;;;;;;;18.47;11.67;;;15.40;99.90;;;;;;5032862;28;20204;-82
2023/05/08 12:12:22;;;;;;;13.93;12.23;;;15.00;99.90;;;;;;5033471;28;20242;-80
2023/05/08 12:14:50;;;;;;;18.73;11.73;;;15.10;99.90;;;;;;5038512;28;20275;-83
2023/05/08 12:17:17;;;;;;;14.93;11.53;;;15.20;99.90;;;;;;5035110;28;20529;-80
2023/05/08 12:19:43;;;;;;;15.07;11.23;;;15.50;99.90;;;;;;5034582;28;20169;-80
2023/05/08 12:22:09;;;;;;;13.60;11.87;;;15.70;99.90;;;;;;5033219;28;20168;-82
2023/05/08 12:24:35;;;;;;;18.57;12.50;;;15.60;99.90;;;;;;5031649;28;20187;-80
2023/05/08 12:27:01;;;;;;;17.73;12.40;;;15.20;99.90;;;;;;5036064;28;20175;-81
2023/05/08 12:29:29;;;;;;;14.23;12.17;;;14.90;99.90;;;;;;5034335;28;20632;-80
2023/05/08 12:31:55;;;;;;;17.47;11.90;;;14.70;99.90;;;;;;5033108;28;20213;-80
2023/05/08 12:34:21;;;;;;;17.27;12.83;;;14.60;99.90;;;;;;5033219;28;20178;-82
2023/05/08 12:36:47;;;;;;;16.00;11.77;;;14.60;99.90;;;;;;5041967;28;20186;-81
2023/05/08 12:39:15;;;;;;;18.03;12.03;;;14.80;99.90;;;;;;5036438;28;20228;-82
2023/05/08 12:41:50;;;;;;;14.80;11.77;;;15.20;99.90;;;;;;5033161;28;20169;-82
2023/05/08 12:44:22;;;;;;;16.77;12.07;;;15.40;99.90;;;;;;5035516;28;20164;-80
2023/05/08 12:46:53;;;;;;;15.83;12.67;;;15.30;99.90;;;;;;5034053;28;20633;-82